createdAt,value
2023-01-28T00:01:49.934Z,-0.35
2023-01-28T00:04:53.676Z,-0.37
2023-01-28T00:07:58.090Z,-0.27
2023-01-28T00:11:02.881Z,-0.29
2023-01-28T00:14:06.045Z,-0.31
2023-01-28T00:17:09.488Z,-0.30
2023-01-28T00:20:12.903Z,-0.24
2023-01-28T00:23:16.203Z,-0.36
2023-01-28T00:26:19.169Z,-0.30
2023-01-28T00:29:23.226Z,-0.29
2023-01-28T00:32:26.268Z,-0.27
2023-01-28T00:35:30.406Z,-0.33
2023-01-28T00:38:34.354Z,-0.30
2023-01-28T00:41:37.794Z,-0.32
2023-01-28T00:44:40.789Z,-0.35
2023-01-28T00:47:45.410Z,-0.35
2023-01-28T00:50:49.545Z,-0.35
2023-01-28T00:53:54.632Z,-0.38
2023-01-28T00:56:57.598Z,-0.35
2023-01-28T01:00:02.198Z,-0.33
2023-01-28T01:03:05.152Z,-0.29
2023-01-28T01:06:09.173Z,-0.21
2023-01-28T01:09:13.111Z,-0.37
2023-01-28T01:12:17.953Z,-0.31
2023-01-28T01:15:20.977Z,-0.29
2023-01-28T01:18:24.176Z,-0.30
2023-01-28T01:21:29.416Z,-0.47
2023-01-28T01:24:34.314Z,-0.54
2023-01-28T01:27:37.512Z,-0.35
2023-01-28T01:30:40.748Z,-0.27
2023-01-28T01:33:45.530Z,-0.19
2023-01-28T01:36:48.957Z,-0.17
2023-01-28T01:39:51.877Z,-0.25
2023-01-28T01:42:55.127Z,-0.21
2023-01-28T01:46:01.260Z,-0.31
2023-01-28T01:49:26.392Z,-0.22
2023-01-28T01:52:33.774Z,-0.27
2023-01-28T01:55:40.330Z,-0.34
2023-01-28T01:58:44.724Z,-0.30
2023-01-28T02:01:48.315Z,-0.23
2023-01-28T02:04:51.775Z,-0.20
2023-01-28T02:08:16.173Z,-0.27
2023-01-28T02:11:21.270Z,-0.34
2023-01-28T02:14:31.358Z,-0.32
2023-01-28T02:17:36.557Z,-0.44
2023-01-28T02:20:52.934Z,-0.63
2023-01-28T02:24:30.507Z,-0.42
2023-01-28T02:27:52.365Z,-0.53
2023-01-28T02:31:18.604Z,-0.50
2023-01-28T02:34:40.730Z,-0.49
2023-01-28T02:38:01.127Z,-0.54
2023-01-28T02:41:10.414Z,-0.72
2023-01-28T02:44:15.585Z,-0.69
2023-01-28T02:47:37.417Z,-0.60
2023-01-28T02:50:49.527Z,-0.48
2023-01-28T02:54:00.499Z,-0.62
2023-01-28T02:57:19.845Z,-0.63
2023-01-28T03:00:58.299Z,-0.69
2023-01-28T03:04:16.598Z,-0.70
2023-01-28T03:07:20.221Z,-0.58
2023-01-28T03:10:26.648Z,-0.63
2023-01-28T03:13:48.199Z,-0.53
2023-01-28T03:17:10.696Z,-0.70
2023-01-28T03:20:34.073Z,-0.54
2023-01-28T03:24:24.708Z,-0.44
2023-01-28T03:27:58.378Z,-0.45
2023-01-28T03:31:25.229Z,-0.41
2023-01-28T03:34:47.384Z,-0.49
2023-01-28T03:37:50.864Z,-0.46
2023-01-28T03:41:00.323Z,-0.45
2023-01-28T03:44:23.869Z,-0.61
2023-01-28T03:47:32.121Z,-0.61
2023-01-28T03:50:36.380Z,-0.54
2023-01-28T03:53:40.510Z,-0.67
2023-01-28T03:56:43.724Z,-0.66
2023-01-28T03:59:49.835Z,-0.58
2023-01-28T04:02:53.371Z,-0.65
2023-01-28T04:06:05.774Z,-0.60
2023-01-28T04:09:10.146Z,-0.81
2023-01-28T04:12:15.017Z,-0.82
2023-01-28T04:15:18.388Z,-0.87
2023-01-28T04:18:27.501Z,-0.93
2023-01-28T04:21:31.206Z,-0.91
2023-01-28T04:24:35.872Z,-0.90
2023-01-28T04:27:38.812Z,-0.85
2023-01-28T04:30:43.795Z,-0.88
2023-01-28T04:33:46.874Z,-0.72
2023-01-28T04:36:50.530Z,-0.76
2023-01-28T04:39:54.231Z,-0.73
2023-01-28T04:42:57.924Z,-0.81
2023-01-28T04:46:01.357Z,-0.85
2023-01-28T04:49:05.285Z,-0.80
2023-01-28T04:52:08.740Z,-0.96
2023-01-28T04:55:19.501Z,-0.96
2023-01-28T04:58:22.560Z,-0.78
2023-01-28T05:01:26.647Z,-0.88
2023-01-28T05:04:31.653Z,-0.89
2023-01-28T05:07:36.527Z,-0.80
2023-01-28T05:10:42.004Z,-0.99
2023-01-28T05:13:45.405Z,-0.92
2023-01-28T05:16:50.699Z,-0.97
2023-01-28T05:19:55.553Z,-0.87
2023-01-28T05:22:58.811Z,-1.07
2023-01-28T05:26:02.076Z,-0.91
2023-01-28T05:29:05.202Z,-0.94
2023-01-28T05:32:09.401Z,-0.91
2023-01-28T05:35:13.022Z,-1.04
2023-01-28T05:38:16.935Z,-0.88
2023-01-28T05:41:19.983Z,-0.93
2023-01-28T05:44:23.873Z,-0.99
2023-01-28T05:47:28.627Z,-0.98
2023-01-28T05:50:32.646Z,-1.01
2023-01-28T05:53:41.014Z,-1.08
2023-01-28T05:56:44.663Z,-0.93
2023-01-28T05:59:47.726Z,-0.87
2023-01-28T06:02:52.951Z,-0.97
2023-01-28T06:05:56.209Z,-0.94
2023-01-28T06:08:59.183Z,-1.01
2023-01-28T06:12:03.739Z,-1.01
2023-01-28T06:15:07.655Z,-0.91
2023-01-28T06:18:10.930Z,-1.08
2023-01-28T06:21:13.711Z,-0.87
2023-01-28T06:24:16.850Z,-0.89
2023-01-28T06:27:19.839Z,-0.86
2023-01-28T06:30:23.144Z,-0.86
2023-01-28T06:33:26.211Z,-0.92
2023-01-28T06:36:29.429Z,-0.86
2023-01-28T06:39:33.318Z,-0.81
2023-01-28T06:42:36.346Z,-0.92
2023-01-28T06:45:39.249Z,-0.86
2023-01-28T06:48:42.560Z,-0.95
2023-01-28T06:51:46.365Z,-0.72
2023-01-28T06:54:49.578Z,-0.76
2023-01-28T06:57:53.176Z,-0.68
2023-01-28T07:00:56.513Z,-0.85
2023-01-28T07:03:59.488Z,-0.68
2023-01-28T07:07:02.775Z,-0.60
2023-01-28T07:10:06.313Z,-0.79
2023-01-28T07:13:09.758Z,-0.87
2023-01-28T07:16:12.732Z,-0.84
2023-01-28T07:19:16.092Z,-0.78
2023-01-28T07:22:19.036Z,-0.52
2023-01-28T07:25:22.210Z,-0.60
2023-01-28T07:28:25.155Z,-0.64
2023-01-28T07:31:28.852Z,-0.71
2023-01-28T07:34:32.027Z,-0.82
2023-01-28T07:37:35.768Z,-0.73
2023-01-28T07:40:38.887Z,-0.72
2023-01-28T07:43:42.209Z,-0.69
2023-01-28T07:46:45.321Z,-0.66
2023-01-28T07:49:48.717Z,-0.80
2023-01-28T07:52:51.889Z,-0.89
2023-01-28T07:56:02.285Z,-0.90
2023-01-28T07:59:05.296Z,-0.85
2023-01-28T08:02:12.125Z,-0.84
2023-01-28T08:05:20.557Z,-0.70
2023-01-28T08:08:24.558Z,-0.76
2023-01-28T08:11:27.587Z,-0.69
2023-01-28T08:14:30.629Z,-0.81
2023-01-28T08:17:34.268Z,-0.58
2023-01-28T08:20:37.296Z,-0.56
2023-01-28T08:23:41.362Z,-0.62
2023-01-28T08:26:44.938Z,-0.67
2023-01-28T08:29:48.145Z,-0.54
2023-01-28T08:32:51.321Z,-0.69
2023-01-28T08:35:55.697Z,-0.53
2023-01-28T08:38:58.683Z,-0.57
2023-01-28T08:42:03.114Z,-0.61
2023-01-28T08:45:07.132Z,-0.74
2023-01-28T08:48:13.344Z,-0.50
2023-01-28T08:51:16.342Z,-0.29
2023-01-28T08:54:19.537Z,-0.38
2023-01-28T08:57:22.445Z,-0.24
2023-01-28T09:00:25.745Z,-0.17
2023-01-28T09:03:28.800Z,-0.09
2023-01-28T09:06:32.402Z,-0.24
2023-01-28T09:09:35.401Z,-0.32
2023-01-28T09:12:39.002Z,-0.19
2023-01-28T09:15:42.799Z,-0.40
2023-01-28T09:18:46.235Z,-0.25
2023-01-28T09:21:49.569Z,-0.34
2023-01-28T09:24:52.810Z,-0.20
2023-01-28T09:27:56.445Z,-0.41
2023-01-28T09:31:08.639Z,-0.19
2023-01-28T09:34:12.088Z,-0.41
2023-01-28T09:37:15.597Z,-0.21
2023-01-28T09:40:32.133Z,0.02
2023-01-28T09:43:57.342Z,-0.01
2023-01-28T09:47:03.281Z,-0.16
2023-01-28T09:50:34.135Z,-0.02
2023-01-28T09:53:44.170Z,-0.08
2023-01-28T09:56:50.725Z,-0.02
2023-01-28T09:59:54.478Z,0.13
2023-01-28T10:03:31.565Z,0.18
2023-01-28T10:07:01.152Z,0.35
2023-01-28T10:10:11.190Z,0.33
2023-01-28T10:14:06.885Z,0.04
2023-01-28T10:17:51.841Z,0.40
2023-01-28T10:20:58.299Z,0.39
2023-01-28T10:24:26.495Z,0.37
2023-01-28T10:27:31.533Z,0.44
2023-01-28T10:30:35.634Z,0.70
2023-01-28T10:33:40.121Z,1.00
2023-01-28T10:36:43.582Z,1.27
2023-01-28T10:39:47.006Z,1.17
2023-01-28T10:42:50.680Z,0.87
2023-01-28T10:45:54.038Z,1.20
2023-01-28T10:49:04.253Z,1.50
2023-01-28T10:52:15.324Z,1.50
2023-01-28T10:55:18.449Z,1.30
2023-01-28T10:58:25.274Z,1.35
2023-01-28T11:01:45.275Z,1.60
2023-01-28T11:04:48.679Z,1.45
2023-01-28T11:07:52.279Z,1.24
2023-01-28T11:10:56.900Z,1.21
2023-01-28T11:14:01.379Z,1.39
2023-01-28T11:17:04.675Z,1.44
2023-01-28T11:20:14.373Z,1.35
2023-01-28T11:23:33.572Z,1.41
2023-01-28T11:26:38.701Z,1.50
2023-01-28T11:29:42.369Z,1.51
2023-01-28T11:32:45.326Z,1.48
2023-01-28T11:35:57.828Z,1.55
2023-01-28T11:39:16.729Z,1.34
2023-01-28T11:42:21.775Z,1.30
2023-01-28T11:46:07.827Z,1.58
2023-01-28T11:49:43.308Z,1.64
2023-01-28T11:53:07.879Z,1.50
2023-01-28T11:56:30.767Z,1.58
2023-01-28T11:59:57.606Z,1.58
2023-01-28T12:03:22.178Z,1.23
2023-01-28T12:06:44.149Z,1.64
2023-01-28T12:10:20.253Z,1.68
2023-01-28T12:13:42.315Z,1.71
2023-01-28T12:17:00.381Z,1.76
2023-01-28T12:20:35.751Z,1.72
2023-01-28T12:23:52.581Z,1.38
2023-01-28T12:27:22.081Z,1.57
2023-01-28T12:31:00.587Z,1.41
2023-01-28T12:34:32.038Z,1.76
2023-01-28T12:37:43.588Z,1.65
2023-01-28T12:40:55.804Z,1.37
2023-01-28T12:44:06.911Z,1.27
2023-01-28T12:47:13.055Z,1.52
2023-01-28T12:50:26.826Z,1.75
2023-01-28T12:53:51.730Z,1.54
2023-01-28T12:56:55.778Z,1.74
2023-01-28T13:00:08.597Z,1.69
2023-01-28T13:03:30.160Z,1.67
2023-01-28T13:06:41.635Z,1.64
2023-01-28T13:10:10.772Z,1.64
2023-01-28T13:13:20.517Z,1.60
2023-01-28T13:16:36.037Z,1.63
2023-01-28T13:19:41.563Z,1.63
2023-01-28T13:22:45.890Z,1.56
2023-01-28T13:25:52.171Z,1.54
2023-01-28T13:29:08.404Z,1.60
2023-01-28T13:32:32.377Z,1.51
2023-01-28T13:35:40.270Z,1.61
2023-01-28T13:38:44.646Z,1.52
2023-01-28T13:41:56.985Z,1.71
2023-01-28T13:45:21.602Z,1.85
2023-01-28T13:48:39.290Z,1.69
2023-01-28T13:51:54.002Z,1.73
2023-01-28T13:55:03.265Z,1.84
2023-01-28T13:58:25.911Z,1.85
2023-01-28T14:01:37.785Z,1.85
2023-01-28T14:05:13.770Z,1.56
2023-01-28T14:08:44.042Z,1.81
2023-01-28T14:12:11.635Z,1.69
2023-01-28T14:15:23.272Z,1.70
2023-01-28T14:18:35.934Z,1.61
2023-01-28T14:21:38.843Z,1.68
2023-01-28T14:24:42.045Z,1.67
2023-01-28T14:27:48.216Z,1.75
2023-01-28T14:30:56.376Z,1.62
2023-01-28T14:34:07.128Z,1.70
2023-01-28T14:37:14.134Z,1.67
2023-01-28T14:40:17.831Z,1.70
2023-01-28T14:43:25.666Z,1.52
2023-01-28T14:46:41.030Z,1.38
2023-01-28T14:49:53.477Z,1.32
2023-01-28T14:53:19.411Z,1.39
2023-01-28T14:56:42.646Z,1.32
2023-01-28T14:59:50.085Z,1.29
2023-01-28T15:02:53.709Z,1.40
2023-01-28T15:06:17.241Z,1.22
2023-01-28T15:09:23.730Z,1.28
2023-01-28T15:12:28.944Z,1.18
2023-01-28T15:15:33.994Z,1.14
2023-01-28T15:18:41.871Z,1.15
2023-01-28T15:21:45.985Z,1.12
2023-01-28T15:24:50.448Z,1.06
2023-01-28T15:27:55.458Z,1.06
2023-01-28T15:31:01.022Z,1.02
2023-01-28T15:34:10.347Z,1.06
2023-01-28T15:37:20.428Z,0.94
2023-01-28T15:40:26.067Z,0.92
2023-01-28T15:43:35.972Z,0.90
2023-01-28T15:46:40.303Z,0.82
2023-01-28T15:49:46.465Z,0.78
2023-01-28T15:52:50.298Z,0.81
2023-01-28T15:56:05.198Z,0.68
2023-01-28T15:59:24.777Z,0.65
2023-01-28T16:02:32.003Z,0.77
2023-01-28T16:05:38.907Z,0.79
2023-01-28T16:08:52.930Z,0.65
2023-01-28T16:12:12.435Z,0.76
2023-01-28T16:15:19.422Z,0.62
2023-01-28T16:18:38.051Z,0.72
2023-01-28T16:21:45.992Z,0.70
2023-01-28T16:24:53.799Z,0.47
2023-01-28T16:27:58.823Z,0.49
2023-01-28T16:31:02.284Z,0.52
2023-01-28T16:34:06.194Z,0.49
2023-01-28T16:37:10.993Z,0.42
2023-01-28T16:40:18.576Z,0.38
2023-01-28T16:43:22.577Z,0.50
2023-01-28T16:46:27.764Z,0.56
2023-01-28T16:49:30.867Z,0.46
2023-01-28T16:52:34.055Z,0.45
2023-01-28T16:55:38.827Z,0.54
2023-01-28T16:58:42.308Z,0.52
2023-01-28T17:01:47.408Z,0.55
2023-01-28T17:04:52.312Z,0.60
2023-01-28T17:07:59.668Z,0.56
2023-01-28T17:11:04.035Z,0.65
2023-01-28T17:14:08.897Z,0.64
2023-01-28T17:17:12.030Z,0.50
2023-01-28T17:20:17.695Z,0.61
2023-01-28T17:23:25.893Z,0.68
2023-01-28T17:26:29.572Z,0.54
2023-01-28T17:29:32.917Z,0.59
2023-01-28T17:32:36.723Z,0.51
2023-01-28T17:35:40.373Z,0.45
2023-01-28T17:38:47.368Z,0.60
2023-01-28T17:41:52.743Z,0.58
2023-01-28T17:45:03.413Z,0.61
2023-01-28T17:48:07.976Z,0.65
2023-01-28T17:51:15.246Z,0.52
2023-01-28T17:54:18.990Z,0.59
2023-01-28T17:57:24.440Z,0.60
2023-01-28T18:00:29.737Z,0.55
2023-01-28T18:03:34.770Z,0.48
2023-01-28T18:06:38.106Z,0.48
2023-01-28T18:09:44.028Z,0.53
2023-01-28T18:12:47.450Z,0.37
2023-01-28T18:15:54.421Z,0.39
2023-01-28T18:18:58.126Z,0.43
2023-01-28T18:22:01.960Z,0.22
2023-01-28T18:25:06.001Z,0.15
2023-01-28T18:28:11.784Z,0.28
2023-01-28T18:31:17.143Z,0.29
2023-01-28T18:34:22.789Z,0.31
2023-01-28T18:37:26.060Z,0.27
2023-01-28T18:40:30.419Z,0.21
2023-01-28T18:43:35.642Z,0.21
2023-01-28T18:46:40.059Z,0.19
2023-01-28T18:49:44.097Z,0.24
2023-01-28T18:52:48.345Z,0.27
2023-01-28T18:55:52.529Z,0.27
2023-01-28T18:59:05.706Z,0.26
2023-01-28T19:02:13.944Z,0.14
2023-01-28T19:05:19.707Z,0.15
2023-01-28T19:08:24.584Z,0.12
2023-01-28T19:11:31.132Z,0.13
2023-01-28T19:14:34.510Z,0.12
2023-01-28T19:17:39.372Z,0.10
2023-01-28T19:20:44.490Z,0.04
2023-01-28T19:23:58.889Z,-0.08
2023-01-28T19:27:02.844Z,-0.11
2023-01-28T19:30:08.234Z,-0.20
2023-01-28T19:33:13.045Z,-0.16
2023-01-28T19:36:17.499Z,-0.10
2023-01-28T19:39:21.408Z,-0.12
2023-01-28T19:42:25.174Z,-0.19
2023-01-28T19:45:29.091Z,-0.26
2023-01-28T19:48:33.617Z,-0.19
2023-01-28T19:51:37.513Z,-0.18
2023-01-28T19:54:43.187Z,-0.20
2023-01-28T19:57:46.694Z,-0.17
2023-01-28T20:00:51.986Z,-0.28
2023-01-28T20:03:59.063Z,-0.32
2023-01-28T20:07:05.132Z,-0.40
2023-01-28T20:10:11.975Z,-0.46
2023-01-28T20:13:15.533Z,-0.43
2023-01-28T20:16:29.060Z,-0.60
2023-01-28T20:19:36.786Z,-0.41
2023-01-28T20:22:42.189Z,-0.44
2023-01-28T20:25:51.128Z,-0.39
2023-01-28T20:28:55.551Z,-0.43
2023-01-28T20:32:15.105Z,-0.42
2023-01-28T20:35:20.593Z,-0.43
2023-01-28T20:38:26.663Z,-0.54
2023-01-28T20:41:32.272Z,-0.49
2023-01-28T20:44:38.129Z,-0.52
2023-01-28T20:47:42.899Z,-0.53
2023-01-28T20:50:47.872Z,-0.53
2023-01-28T20:53:53.443Z,-0.76
2023-01-28T20:56:57.907Z,-0.65
2023-01-28T21:00:01.977Z,-0.63
2023-01-28T21:03:05.890Z,-0.61
2023-01-28T21:06:09.386Z,-0.59
2023-01-28T21:09:13.248Z,-0.53
2023-01-28T21:12:17.602Z,-0.48
2023-01-28T21:15:21.267Z,-0.53
2023-01-28T21:18:26.837Z,-0.60
2023-01-28T21:21:30.419Z,-0.52
2023-01-28T21:24:34.033Z,-0.56
2023-01-28T21:27:37.445Z,-0.64
2023-01-28T21:30:41.169Z,-0.59
2023-01-28T21:33:47.970Z,-0.61
2023-01-28T21:36:51.415Z,-0.70
2023-01-28T21:39:54.611Z,-0.68
2023-01-28T21:42:57.981Z,-0.67
2023-01-28T21:46:02.794Z,-0.68
2023-01-28T21:49:08.524Z,-0.74
2023-01-28T21:52:13.979Z,-0.77
2023-01-28T21:55:20.718Z,-0.75
2023-01-28T21:58:43.281Z,-0.83
2023-01-28T22:01:46.642Z,-0.87
2023-01-28T22:04:50.874Z,-0.80
2023-01-28T22:07:53.984Z,-0.81
2023-01-28T22:11:05.491Z,-0.91
2023-01-28T22:14:08.699Z,-0.79
2023-01-28T22:17:12.410Z,-0.80
2023-01-28T22:20:15.608Z,-0.82
2023-01-28T22:23:19.015Z,-0.78
2023-01-28T22:26:21.981Z,-0.89
2023-01-28T22:29:25.733Z,-0.82
2023-01-28T22:32:28.654Z,-0.92
2023-01-28T22:35:32.652Z,-0.90
2023-01-28T22:38:39.399Z,-0.81
2023-01-28T22:41:45.034Z,-0.79
2023-01-28T22:44:49.266Z,-0.82
2023-01-28T22:47:52.950Z,-0.95
2023-01-28T22:51:10.797Z,-0.95
2023-01-28T22:54:15.083Z,-1.11
2023-01-28T22:57:18.219Z,-1.09
2023-01-28T23:00:27.251Z,-1.12
2023-01-28T23:03:30.502Z,-1.18
2023-01-28T23:06:34.501Z,-1.26
2023-01-28T23:09:37.474Z,-1.30
2023-01-28T23:12:40.702Z,-1.28
2023-01-28T23:16:04.545Z,-1.37
2023-01-28T23:19:27.376Z,-1.39
2023-01-28T23:22:50.967Z,-1.43
2023-01-28T23:25:54.217Z,-1.45
2023-01-28T23:28:57.104Z,-1.49
2023-01-28T23:32:03.920Z,-1.59
2023-01-28T23:35:11.129Z,-1.62
2023-01-28T23:38:14.368Z,-1.62
2023-01-28T23:41:17.398Z,-1.62
2023-01-28T23:44:28.203Z,-1.65
2023-01-28T23:47:31.582Z,-1.57
2023-01-28T23:50:35.106Z,-1.57
2023-01-28T23:53:38.052Z,-1.54
2023-01-28T23:56:41.261Z,-1.55
2023-01-28T23:59:44.144Z,-1.56
